Time,TemperatureF,DewpointF,PressureIn,WindDirection,WindDirectionDegrees,WindSpeedMPH,WindSpeedGustMPH,Humidity,HourlyPrecipIn,Conditions,Clouds,dailyrainin,SoftwareType,DateUTC
2013-03-04 00:01:00,22.0,18.0,30.06,NW,308,2.0,11.0,86,0.00,,,0.00,,2013-03-04 05:01:00,
2013-03-04 00:11:00,22.0,18.0,30.06,NW,308,2.0,11.0,86,0.00,,,0.00,,2013-03-04 05:11:00,
2013-03-04 00:22:00,22.0,18.0,30.06,WNW,301,4.0,9.0,86,0.00,,,0.00,,2013-03-04 05:22:00,
2013-03-04 00:32:00,22.0,18.0,30.06,NW,313,4.0,8.0,85,0.00,,,0.00,,2013-03-04 05:32:00,
2013-03-04 00:42:00,22.0,18.0,30.06,NW,313,4.0,8.0,85,0.00,,,0.00,,2013-03-04 05:42:00,
2013-03-04 00:52:00,22.0,18.0,30.06,NNW,338,3.0,7.0,84,0.00,,,0.00,,2013-03-04 05:52:00,
2013-03-04 01:02:00,22.0,18.0,30.06,NW,313,3.0,7.0,84,0.00,,,0.00,,2013-03-04 06:02:00,
2013-03-04 01:11:00,22.0,18.0,30.06,NW,313,3.0,7.0,84,0.00,,,0.00,,2013-03-04 06:11:00,
2013-03-04 01:22:00,22.0,18.0,30.06,NW,317,3.0,6.0,83,0.00,,,0.00,,2013-03-04 06:22:00,
2013-03-04 01:32:00,22.0,18.0,30.07,NW,324,1.0,5.0,83,0.00,,,0.00,,2013-03-04 06:32:00,
2013-03-04 01:42:00,22.0,18.0,30.07,NW,324,1.0,5.0,83,0.00,,,0.00,,2013-03-04 06:42:00,
2013-03-04 01:52:00,22.0,18.0,30.07,NW,324,2.0,4.0,83,0.00,,,0.00,,2013-03-04 06:52:00,
2013-03-04 02:02:00,22.0,18.0,30.07,NW,324,1.0,3.0,83,0.00,,,0.00,,2013-03-04 07:02:00,
2013-03-04 02:11:00,22.0,18.0,30.07,NW,324,1.0,3.0,83,0.00,,,0.00,,2013-03-04 07:11:00,
2013-03-04 02:22:00,22.0,18.0,30.07,NW,324,0.0,3.0,83,0.00,,,0.00,,2013-03-04 07:22:00,
2013-03-04 02:32:00,22.0,17.0,30.08,WNW,293,0.0,4.0,82,0.00,,,0.00,,2013-03-04 07:32:00,
2013-03-04 02:42:00,22.0,17.0,30.08,WNW,293,0.0,4.0,82,0.00,,,0.00,,2013-03-04 07:42:00,
2013-03-04 02:52:00,22.0,17.0,30.08,West,261,2.0,6.0,82,0.00,,,0.00,,2013-03-04 07:52:00,
2013-03-04 03:02:00,22.0,17.0,30.08,West,262,1.0,5.0,82,0.00,,,0.00,,2013-03-04 08:02:00,
2013-03-04 03:12:00,22.0,17.0,30.08,West,262,1.0,5.0,82,0.00,,,0.00,,2013-03-04 08:12:00,
2013-03-04 03:22:00,22.0,17.0,30.08,WNW,296,3.0,6.0,82,0.00,,,0.00,,2013-03-04 08:22:00,
2013-03-04 03:32:00,22.0,17.0,30.09,West,276,2.0,7.0,82,0.00,,,0.00,,2013-03-04 08:32:00,
2013-03-04 03:42:00,22.0,17.0,30.09,West,276,2.0,7.0,82,0.00,,,0.00,,2013-03-04 08:42:00,
2013-03-04 03:52:00,22.0,18.0,30.08,West,276,2.0,6.0,83,0.00,,,0.00,,2013-03-04 08:52:00,
2013-03-04 04:02:00,22.0,18.0,30.08,West,276,0.0,3.0,83,0.00,,,0.00,,2013-03-04 09:02:00,
2013-03-04 04:11:00,22.0,18.0,30.08,West,276,0.0,3.0,83,0.00,,,0.00,,2013-03-04 09:11:00,
2013-03-04 04:22:00,21.0,17.0,30.08,West,276,0.0,2.0,84,0.00,,,0.00,,2013-03-04 09:22:00,
2013-03-04 04:32:00,21.0,17.0,30.08,West,276,0.0,2.0,85,0.00,,,0.00,,2013-03-04 09:32:00,
2013-03-04 04:42:00,21.0,17.0,30.08,West,276,0.0,2.0,85,0.00,,,0.00,,2013-03-04 09:42:00,
2013-03-04 04:52:00,22.0,18.0,30.08,West,276,1.0,3.0,85,0.00,,,0.00,,2013-03-04 09:52:00,
2013-03-04 05:01:00,21.0,17.0,30.08,West,276,0.0,3.0,85,0.00,,,0.00,,2013-03-04 10:01:00,
2013-03-04 05:12:00,21.0,17.0,30.08,West,276,0.0,3.0,85,0.00,,,0.00,,2013-03-04 10:12:00,
2013-03-04 05:22:00,21.0,17.0,30.09,West,276,0.0,2.0,86,0.00,,,0.00,,2013-03-04 10:22:00,
2013-03-04 05:32:00,21.0,18.0,30.09,West,276,0.0,1.0,87,0.00,,,0.00,,2013-03-04 10:32:00,
2013-03-04 05:42:00,21.0,18.0,30.09,West,276,0.0,1.0,87,0.00,,,0.00,,2013-03-04 10:42:00,
2013-03-04 05:52:00,20.0,17.0,30.09,West,276,0.0,1.0,88,0.00,,,0.00,,2013-03-04 10:52:00,
2013-03-04 06:02:00,20.0,17.0,30.10,West,276,0.0,2.0,88,0.00,,,0.00,,2013-03-04 11:02:00,
2013-03-04 06:11:00,20.0,17.0,30.10,West,276,0.0,2.0,88,0.00,,,0.00,,2013-03-04 11:11:00,
2013-03-04 06:22:00,20.0,18.0,30.10,West,276,0.0,4.0,90,0.00,,,0.00,,2013-03-04 11:22:00,
2013-03-04 06:32:00,21.0,19.0,30.11,West,276,2.0,5.0,91,0.00,,,0.00,,2013-03-04 11:32:00,
2013-03-04 06:42:00,21.0,19.0,30.11,West,276,2.0,5.0,91,0.00,,,0.00,,2013-03-04 11:42:00,
2013-03-04 06:52:00,22.0,20.0,30.12,WNW,290,4.0,8.0,91,0.00,,,0.00,,2013-03-04 11:52:00,
2013-03-04 07:02:00,22.0,20.0,30.12,West,271,5.0,9.0,90,0.00,,,0.00,,2013-03-04 12:02:00,
2013-03-04 07:11:00,22.0,20.0,30.12,West,271,5.0,9.0,90,0.00,,,0.00,,2013-03-04 12:11:00,
2013-03-04 07:22:00,22.0,20.0,30.13,WSW,246,5.0,12.0,90,0.00,,,0.00,,2013-03-04 12:22:00,
2013-03-04 07:32:00,22.0,20.0,30.14,West,277,4.0,8.0,90,0.00,,,0.00,,2013-03-04 12:32:00,
2013-03-04 07:42:00,22.0,20.0,30.14,West,277,4.0,8.0,90,0.00,,,0.00,,2013-03-04 12:42:00,
2013-03-04 07:53:00,22.0,20.0,30.14,WNW,290,2.0,7.0,90,0.00,,,0.00,,2013-03-04 12:53:00,
2013-03-04 08:02:00,22.0,20.0,30.14,WNW,300,5.0,10.0,90,0.00,,,0.00,,2013-03-04 13:02:00,
2013-03-04 08:11:00,22.0,20.0,30.14,WNW,300,5.0,10.0,90,0.00,,,0.00,,2013-03-04 13:11:00,
2013-03-04 08:22:00,22.0,19.0,30.14,West,275,4.0,7.0,88,0.00,,,0.00,,2013-03-04 13:22:00,
2013-03-04 08:32:00,23.0,20.0,30.14,NW,315,3.0,6.0,88,0.00,,,0.00,,2013-03-04 13:32:00,
2013-03-04 08:42:00,23.0,20.0,30.14,NW,315,3.0,6.0,88,0.00,,,0.00,,2013-03-04 13:42:00,
2013-03-04 08:52:00,23.0,19.0,30.14,NW,304,6.0,10.0,86,0.00,,,0.00,,2013-03-04 13:52:00,
2013-03-04 09:01:00,23.0,19.0,30.14,WNW,288,4.0,8.0,86,0.00,,,0.00,,2013-03-04 14:01:00,
2013-03-04 09:12:00,23.0,19.0,30.14,WNW,288,4.0,8.0,86,0.00,,,0.00,,2013-03-04 14:12:00,
2013-03-04 09:22:00,23.0,19.0,30.14,West,281,5.0,8.0,86,0.00,,,0.00,,2013-03-04 14:22:00,
2013-03-04 09:32:00,23.0,19.0,30.15,West,281,6.0,10.0,85,0.00,,,0.00,,2013-03-04 14:32:00,
2013-03-04 09:42:00,23.0,19.0,30.15,West,281,6.0,10.0,85,0.00,,,0.00,,2013-03-04 14:42:00,
2013-03-04 09:52:00,24.0,20.0,30.15,NW,306,3.0,9.0,85,0.00,,,0.00,,2013-03-04 14:52:00,
2013-03-04 10:02:00,24.0,20.0,30.15,NW,319,4.0,8.0,83,0.00,,,0.00,,2013-03-04 15:02:00,
2013-03-04 10:11:00,24.0,20.0,30.15,NW,319,4.0,8.0,83,0.00,,,0.00,,2013-03-04 15:11:00,
2013-03-04 10:22:00,24.0,20.0,30.15,NW,324,5.0,9.0,83,0.00,,,0.00,,2013-03-04 15:22:00,
2013-03-04 10:32:00,24.0,20.0,30.16,WSW,238,4.0,10.0,83,0.00,,,0.00,,2013-03-04 15:32:00,
2013-03-04 10:42:00,24.0,20.0,30.16,WSW,238,4.0,10.0,83,0.00,,,0.00,,2013-03-04 15:42:00,
2013-03-04 10:52:00,25.0,20.0,30.16,NW,306,5.0,9.0,81,0.00,,,0.00,,2013-03-04 15:52:00,
2013-03-04 11:03:00,25.0,20.0,30.16,NW,306,5.0,9.0,81,0.00,,,0.00,,2013-03-04 16:03:00,
2013-03-04 11:11:00,25.0,20.0,30.16,NW,306,5.0,9.0,81,0.00,,,0.00,,2013-03-04 16:11:00,
2013-03-04 11:21:00,25.0,20.0,30.16,West,265,7.0,11.0,80,0.00,,,0.00,,2013-03-04 16:21:00,
2013-03-04 11:32:00,25.0,20.0,30.16,WSW,254,5.0,11.0,81,0.00,,,0.00,,2013-03-04 16:32:00,
2013-03-04 11:42:00,25.0,20.0,30.16,WSW,254,5.0,11.0,81,0.00,,,0.00,,2013-03-04 16:42:00,
2013-03-04 11:52:00,25.0,20.0,30.15,West,280,6.0,10.0,80,0.00,,,0.00,,2013-03-04 16:52:00,
2013-03-04 12:02:00,25.0,19.0,30.15,NW,309,6.0,12.0,78,0.00,,,0.00,,2013-03-04 17:02:00,
2013-03-04 12:11:00,25.0,19.0,30.15,NW,309,6.0,12.0,78,0.00,,,0.00,,2013-03-04 17:11:00,
2013-03-04 12:22:00,25.0,19.0,30.15,NW,309,6.0,12.0,78,0.00,,,0.00,,2013-03-04 17:22:00,
2013-03-04 12:32:00,26.0,19.0,30.15,West,278,8.0,11.0,75,0.00,,,0.00,,2013-03-04 17:32:00,
2013-03-04 12:42:00,26.0,19.0,30.15,West,278,8.0,11.0,75,0.00,,,0.00,,2013-03-04 17:42:00,
2013-03-04 12:52:00,26.0,19.0,30.15,WSW,246,5.0,11.0,76,0.00,,,0.00,,2013-03-04 17:52:00,
2013-03-04 13:02:00,27.0,19.0,30.15,West,272,6.0,11.0,72,0.00,,,0.00,,2013-03-04 18:02:00,
2013-03-04 13:11:00,27.0,19.0,30.15,West,272,6.0,11.0,72,0.00,,,0.00,,2013-03-04 18:11:00,
2013-03-04 13:22:00,27.0,20.0,30.15,WNW,301,6.0,11.0,74,0.00,,,0.00,,2013-03-04 18:22:00,
2013-03-04 13:32:00,27.0,18.0,30.14,WNW,282,7.0,12.0,69,0.00,,,0.00,,2013-03-04 18:32:00,
2013-03-04 13:42:00,27.0,18.0,30.14,WNW,282,7.0,12.0,69,0.00,,,0.00,,2013-03-04 18:42:00,
2013-03-04 13:52:00,28.0,20.0,30.14,WNW,288,6.0,11.0,70,0.00,,,0.00,,2013-03-04 18:52:00,
2013-03-04 14:02:00,28.0,20.0,30.14,WNW,288,6.0,11.0,70,0.00,,,0.00,,2013-03-04 19:02:00,
2013-03-04 14:12:00,28.0,20.0,30.14,WNW,288,6.0,11.0,70,0.00,,,0.00,,2013-03-04 19:12:00,
2013-03-04 14:22:00,28.0,19.0,30.13,West,278,7.0,11.0,68,0.00,,,0.00,,2013-03-04 19:22:00,
2013-03-04 14:32:00,28.0,20.0,30.13,NW,309,6.0,11.0,71,0.00,,,0.00,,2013-03-04 19:32:00,
2013-03-04 14:42:00,28.0,20.0,30.13,NW,309,6.0,11.0,71,0.00,,,0.00,,2013-03-04 19:42:00,
2013-03-04 14:52:00,28.0,20.0,30.13,West,276,6.0,12.0,72,0.00,,,0.00,,2013-03-04 19:52:00,
2013-03-04 15:02:00,28.0,20.0,30.13,West,266,7.0,13.0,71,0.00,,,0.00,,2013-03-04 20:02:00,
2013-03-04 15:12:00,28.0,20.0,30.13,West,266,7.0,13.0,71,0.00,,,0.00,,2013-03-04 20:12:00,
2013-03-04 15:22:00,28.0,20.0,30.13,WNW,284,5.0,12.0,72,0.00,,,0.00,,2013-03-04 20:22:00,
2013-03-04 15:32:00,28.0,20.0,30.13,WNW,294,6.0,15.0,71,0.00,,,0.00,,2013-03-04 20:32:00,
2013-03-04 15:42:00,28.0,20.0,30.13,WNW,294,6.0,15.0,71,0.00,,,0.00,,2013-03-04 20:42:00,
2013-03-04 15:52:00,29.0,20.0,30.12,NW,321,6.0,10.0,69,0.00,,,0.00,,2013-03-04 20:52:00,
2013-03-04 16:02:00,29.0,21.0,30.12,NW,315,6.0,10.0,71,0.00,,,0.00,,2013-03-04 21:02:00,
2013-03-04 16:12:00,29.0,21.0,30.12,NW,315,6.0,10.0,71,0.00,,,0.00,,2013-03-04 21:12:00,
2013-03-04 16:22:00,29.0,21.0,30.12,WSW,244,4.0,10.0,71,0.00,,,0.00,,2013-03-04 21:22:00,
2013-03-04 16:32:00,29.0,21.0,30.12,NW,319,4.0,10.0,73,0.00,,,0.00,,2013-03-04 21:32:00,
2013-03-04 16:42:00,29.0,21.0,30.12,NW,319,4.0,10.0,73,0.00,,,0.00,,2013-03-04 21:42:00,
2013-03-04 16:52:00,29.0,21.0,30.12,West,276,3.0,8.0,71,0.00,,,0.00,,2013-03-04 21:52:00,
2013-03-04 17:02:00,29.0,21.0,30.12,WNW,286,4.0,10.0,71,0.00,,,0.00,,2013-03-04 22:02:00,
2013-03-04 17:12:00,29.0,21.0,30.12,WNW,286,4.0,10.0,71,0.00,,,0.00,,2013-03-04 22:12:00,
2013-03-04 17:22:00,29.0,21.0,30.12,West,273,6.0,9.0,72,0.00,,,0.00,,2013-03-04 22:22:00,
2013-03-04 17:32:00,28.0,20.0,30.12,WNW,302,5.0,9.0,73,0.00,,,0.00,,2013-03-04 22:32:00,
2013-03-04 17:42:00,28.0,20.0,30.12,WNW,302,5.0,9.0,73,0.00,,,0.00,,2013-03-04 22:42:00,
2013-03-04 17:52:00,28.0,20.0,30.12,NW,325,4.0,8.0,72,0.00,,,0.00,,2013-03-04 22:52:00,
2013-03-04 18:02:00,28.0,20.0,30.12,WNW,298,4.0,8.0,73,0.00,,,0.00,,2013-03-04 23:02:00,
2013-03-04 18:11:00,28.0,20.0,30.12,WNW,298,4.0,8.0,73,0.00,,,0.00,,2013-03-04 23:11:00,
2013-03-04 18:22:00,27.0,20.0,30.13,WNW,299,4.0,8.0,75,0.00,,,0.00,,2013-03-04 23:22:00,
2013-03-04 18:32:00,27.0,20.0,30.13,WNW,299,4.0,8.0,75,0.00,,,0.00,,2013-03-04 23:32:00,
2013-03-04 18:42:00,27.0,20.0,30.13,WNW,299,4.0,8.0,75,0.00,,,0.00,,2013-03-04 23:42:00,
2013-03-04 18:52:00,26.0,19.0,30.13,WNW,296,3.0,6.0,76,0.00,,,0.00,,2013-03-04 23:52:00,
2013-03-04 19:02:00,26.0,19.0,30.13,NW,306,3.0,5.0,76,0.00,,,0.00,,2013-03-05 00:02:00,
2013-03-04 19:12:00,26.0,19.0,30.13,NW,306,3.0,5.0,76,0.00,,,0.00,,2013-03-05 00:12:00,
2013-03-04 19:22:00,26.0,19.0,30.13,NW,317,2.0,4.0,75,0.00,,,0.00,,2013-03-05 00:22:00,
2013-03-04 19:32:00,26.0,19.0,30.13,NW,317,0.0,2.0,76,0.00,,,0.00,,2013-03-05 00:32:00,
2013-03-04 19:42:00,26.0,19.0,30.13,NW,317,0.0,2.0,76,0.00,,,0.00,,2013-03-05 00:42:00,
2013-03-04 19:52:00,25.0,19.0,30.13,NW,317,0.0,0.0,77,0.00,,,0.00,,2013-03-05 00:52:00,
2013-03-04 20:02:00,25.0,19.0,30.13,NW,317,0.0,1.0,77,0.00,,,0.00,,2013-03-05 01:02:00,
2013-03-04 20:12:00,25.0,19.0,30.13,NW,317,0.0,1.0,77,0.00,,,0.00,,2013-03-05 01:12:00,
2013-03-04 20:22:00,25.0,19.0,30.12,NW,317,0.0,0.0,77,0.00,,,0.00,,2013-03-05 01:22:00,
2013-03-04 20:33:00,25.0,19.0,30.12,NW,317,0.0,0.0,77,0.00,,,0.00,,2013-03-05 01:33:00,
2013-03-04 20:42:00,25.0,19.0,30.12,NW,317,0.0,0.0,77,0.00,,,0.00,,2013-03-05 01:42:00,
2013-03-04 20:52:00,24.0,18.0,30.12,NW,317,0.0,0.0,79,0.00,,,0.00,,2013-03-05 01:52:00,
2013-03-04 21:02:00,24.0,19.0,30.12,NW,317,0.0,0.0,81,0.00,,,0.00,,2013-03-05 02:02:00,
2013-03-04 21:12:00,24.0,19.0,30.12,NW,317,0.0,0.0,81,0.00,,,0.00,,2013-03-05 02:12:00,
2013-03-04 21:22:00,23.0,18.0,30.12,NW,317,0.0,0.0,82,0.00,,,0.00,,2013-03-05 02:22:00,
2013-03-04 21:32:00,24.0,19.0,30.12,NW,317,0.0,0.0,82,0.00,,,0.00,,2013-03-05 02:32:00,
2013-03-04 21:42:00,24.0,19.0,30.12,NW,317,0.0,0.0,82,0.00,,,0.00,,2013-03-05 02:42:00,
2013-03-04 21:52:00,24.0,19.0,30.12,NW,317,0.0,0.0,82,0.00,,,0.00,,2013-03-05 02:52:00,
2013-03-04 22:02:00,24.0,20.0,30.12,NW,317,0.0,0.0,83,0.00,,,0.00,,2013-03-05 03:02:00,
2013-03-04 22:12:00,24.0,20.0,30.12,NW,317,0.0,0.0,83,0.00,,,0.00,,2013-03-05 03:12:00,
2013-03-04 22:22:00,23.0,19.0,30.12,NW,317,0.0,0.0,83,0.00,,,0.00,,2013-03-05 03:22:00,
2013-03-04 22:32:00,23.0,19.0,30.12,NW,317,0.0,0.0,84,0.00,,,0.00,,2013-03-05 03:32:00,
2013-03-04 22:42:00,23.0,19.0,30.12,NW,317,0.0,0.0,84,0.00,,,0.00,,2013-03-05 03:42:00,
2013-03-04 22:52:00,23.0,19.0,30.12,NW,317,0.0,0.0,84,0.00,,,0.00,,2013-03-05 03:52:00,
2013-03-04 23:02:00,22.0,18.0,30.12,NW,317,0.0,0.0,84,0.00,,,0.00,,2013-03-05 04:02:00,
2013-03-04 23:12:00,22.0,18.0,30.12,NW,317,0.0,0.0,84,0.00,,,0.00,,2013-03-05 04:12:00,
2013-03-04 23:22:00,22.0,18.0,30.12,NW,317,0.0,0.0,86,0.00,,,0.00,,2013-03-05 04:22:00,
2013-03-04 23:32:00,22.0,19.0,30.12,NW,317,0.0,0.0,87,0.00,,,0.00,,2013-03-05 04:32:00,
2013-03-04 23:42:00,22.0,19.0,30.12,NW,317,0.0,0.0,87,0.00,,,0.00,,2013-03-05 04:42:00,
2013-03-04 23:52:00,21.0,18.0,30.12,NW,317,0.0,0.0,87,0.00,,,0.00,,2013-03-05 04:52:00,